sensor_id;sensor_type;location;lat;lon;timestamp;pressure;altitude;pressure_sealevel;temperature;humidity
44992;BME280;56865;51.618;7.406;2022-12-18T00:00:46;102067.53;;;-0.87;91.54
44992;BME280;56865;51.618;7.406;2022-12-18T00:03:16;102060.25;;;-1.27;89.98
44992;BME280;56865;51.618;7.406;2022-12-18T00:05:49;102048.22;;;-0.96;91.60
44992;BME280;56865;51.618;7.406;2022-12-18T00:08:19;102052.50;;;-0.78;92.79
44992;BME280;56865;51.618;7.406;2022-12-18T00:10:49;102061.75;;;-0.77;90.92
44992;BME280;56865;51.618;7.406;2022-12-18T00:13:19;102065.75;;;-0.79;90.79
44992;BME280;56865;51.618;7.406;2022-12-18T00:15:48;102069.56;;;-0.74;91.43
44992;BME280;56865;51.618;7.406;2022-12-18T00:18:18;102075.03;;;-0.95;90.51
44992;BME280;56865;51.618;7.406;2022-12-18T00:20:50;102076.34;;;-1.08;90.86
44992;BME280;56865;51.618;7.406;2022-12-18T00:23:20;102086.63;;;-0.87;90.36
44992;BME280;56865;51.618;7.406;2022-12-18T00:25:49;102087.53;;;-0.95;90.43
44992;BME280;56865;51.618;7.406;2022-12-18T00:28:20;102084.84;;;-1.15;89.78
44992;BME280;56865;51.618;7.406;2022-12-18T00:30:50;102085.63;;;-0.98;90.48
44992;BME280;56865;51.618;7.406;2022-12-18T00:33:19;102078.53;;;-1.11;90.45
44992;BME280;56865;51.618;7.406;2022-12-18T00:35:56;102066.00;;;-1.11;90.61
44992;BME280;56865;51.618;7.406;2022-12-18T00:38:30;102066.47;;;-1.15;89.97
44992;BME280;56865;51.618;7.406;2022-12-18T00:41:01;102072.94;;;-1.08;90.69
44992;BME280;56865;51.618;7.406;2022-12-18T00:43:33;102076.31;;;-1.17;89.51
44992;BME280;56865;51.618;7.406;2022-12-18T00:46:02;102074.84;;;-1.06;90.61
44992;BME280;56865;51.618;7.406;2022-12-18T00:48:33;102074.72;;;-0.99;91.01
44992;BME280;56865;51.618;7.406;2022-12-18T00:51:07;102081.63;;;-0.96;90.85
44992;BME280;56865;51.618;7.406;2022-12-18T00:53:39;102074.44;;;-0.93;90.98
44992;BME280;56865;51.618;7.406;2022-12-18T00:56:10;102080.44;;;-1.00;89.95
44992;BME280;56865;51.618;7.406;2022-12-18T00:58:41;102066.63;;;-0.96;91.08
44992;BME280;56865;51.618;7.406;2022-12-18T01:01:20;102069.25;;;-0.94;91.44
44992;BME280;56865;51.618;7.406;2022-12-18T01:03:52;102073.81;;;-1.17;90.02
44992;BME280;56865;51.618;7.406;2022-12-18T01:06:28;102072.91;;;-1.17;89.55
44992;BME280;56865;51.618;7.406;2022-12-18T01:08:59;102059.81;;;-1.32;89.69
44992;BME280;56865;51.618;7.406;2022-12-18T01:11:31;102050.13;;;-1.11;90.32
44992;BME280;56865;51.618;7.406;2022-12-18T01:14:02;102058.38;;;-1.12;89.93
44992;BME280;56865;51.618;7.406;2022-12-18T01:16:33;102071.75;;;-1.12;90.03
44992;BME280;56865;51.618;7.406;2022-12-18T01:19:05;102073.06;;;-1.24;89.24
44992;BME280;56865;51.618;7.406;2022-12-18T01:21:38;102083.81;;;-1.25;89.76
44992;BME280;56865;51.618;7.406;2022-12-18T01:24:10;102080.72;;;-1.32;89.62
44992;BME280;56865;51.618;7.406;2022-12-18T01:26:42;102073.19;;;-1.32;89.00
44992;BME280;56865;51.618;7.406;2022-12-18T01:29:13;102073.53;;;-1.11;90.54
44992;BME280;56865;51.618;7.406;2022-12-18T01:31:43;102074.13;;;-1.05;90.59
44992;BME280;56865;51.618;7.406;2022-12-18T01:34:14;102072.34;;;-1.06;90.48
44992;BME280;56865;51.618;7.406;2022-12-18T01:36:47;102068.97;;;-1.06;90.15
44992;BME280;56865;51.618;7.406;2022-12-18T01:39:25;102059.81;;;-1.15;88.90
44992;BME280;56865;51.618;7.406;2022-12-18T01:41:58;102057.47;;;-1.22;89.40
44992;BME280;56865;51.618;7.406;2022-12-18T01:47:19;102054.25;;;-1.21;89.15
44992;BME280;56865;51.618;7.406;2022-12-18T01:49:51;102050.69;;;-1.32;88.74
44992;BME280;56865;51.618;7.406;2022-12-18T01:52:25;102047.31;;;-1.32;89.19
44992;BME280;56865;51.618;7.406;2022-12-18T01:54:56;102059.50;;;-1.35;89.66
44992;BME280;56865;51.618;7.406;2022-12-18T01:57:28;102068.00;;;-1.51;88.69
44992;BME280;56865;51.618;7.406;2022-12-18T02:00:01;102065.38;;;-1.35;88.78
44992;BME280;56865;51.618;7.406;2022-12-18T02:02:32;102064.63;;;-1.51;88.49
44992;BME280;56865;51.618;7.406;2022-12-18T02:05:03;102060.06;;;-1.47;89.35
44992;BME280;56865;51.618;7.406;2022-12-18T02:07:39;102054.22;;;-1.38;88.98
44992;BME280;56865;51.618;7.406;2022-12-18T02:10:12;102065.69;;;-1.32;89.88
44992;BME280;56865;51.618;7.406;2022-12-18T02:12:45;102063.78;;;-1.34;89.64
44992;BME280;56865;51.618;7.406;2022-12-18T02:15:18;102056.88;;;-1.37;89.46
44992;BME280;56865;51.618;7.406;2022-12-18T02:17:50;102048.63;;;-1.36;89.57
44992;BME280;56865;51.618;7.406;2022-12-18T02:20:23;102056.25;;;-1.52;89.02
44992;BME280;56865;51.618;7.406;2022-12-18T02:23:03;102038.31;;;-1.39;89.13
44992;BME280;56865;51.618;7.406;2022-12-18T02:25:40;102026.41;;;-1.33;89.76
44992;BME280;56865;51.618;7.406;2022-12-18T02:28:14;102023.28;;;-1.56;87.95
44992;BME280;56865;51.618;7.406;2022-12-18T02:30:46;102033.28;;;-1.56;89.45
44992;BME280;56865;51.618;7.406;2022-12-18T02:33:17;102034.03;;;-1.40;89.17
44992;BME280;56865;51.618;7.406;2022-12-18T02:36:42;102032.69;;;-1.54;89.67
44992;BME280;56865;51.618;7.406;2022-12-18T02:39:13;102035.22;;;-1.45;90.04
44992;BME280;56865;51.618;7.406;2022-12-18T02:41:43;102037.09;;;-1.60;89.60
44992;BME280;56865;51.618;7.406;2022-12-18T02:44:12;102040.06;;;-1.47;89.84
44992;BME280;56865;51.618;7.406;2022-12-18T02:46:43;102034.78;;;-1.50;89.69
44992;BME280;56865;51.618;7.406;2022-12-18T02:49:17;102032.69;;;-1.54;90.10
44992;BME280;56865;51.618;7.406;2022-12-18T02:51:55;102045.38;;;-1.52;90.04
44992;BME280;56865;51.618;7.406;2022-12-18T02:54:29;102037.69;;;-1.54;90.02
44992;BME280;56865;51.618;7.406;2022-12-18T02:57:06;102037.84;;;-1.43;90.17
44992;BME280;56865;51.618;7.406;2022-12-18T02:59:41;102038.31;;;-1.48;90.75
44992;BME280;56865;51.618;7.406;2022-12-18T03:02:17;102049.81;;;-1.41;89.77
44992;BME280;56865;51.618;7.406;2022-12-18T03:04:49;102048.19;;;-1.40;89.80
44992;BME280;56865;51.618;7.406;2022-12-18T03:07:27;102050.66;;;-1.49;89.87
44992;BME280;56865;51.618;7.406;2022-12-18T03:10:02;102042.44;;;-1.48;89.69
44992;BME280;56865;51.618;7.406;2022-12-18T03:12:32;102034.19;;;-1.47;90.15
44992;BME280;56865;51.618;7.406;2022-12-18T03:15:04;102039.81;;;-1.41;90.17
44992;BME280;56865;51.618;7.406;2022-12-18T03:17:44;102031.25;;;-1.43;90.42
44992;BME280;56865;51.618;7.406;2022-12-18T03:20:17;102036.25;;;-1.43;89.61
44992;BME280;56865;51.618;7.406;2022-12-18T03:22:51;102026.25;;;-1.43;89.80
44992;BME280;56865;51.618;7.406;2022-12-18T03:25:22;102035.22;;;-1.36;89.91
44992;BME280;56865;51.618;7.406;2022-12-18T03:27:56;102037.72;;;-1.45;90.08
44992;BME280;56865;51.618;7.406;2022-12-18T03:30:27;102044.50;;;-1.35;89.88
44992;BME280;56865;51.618;7.406;2022-12-18T03:33:00;102044.19;;;-1.47;89.29
44992;BME280;56865;51.618;7.406;2022-12-18T03:35:33;102030.31;;;-1.70;89.33
44992;BME280;56865;51.618;7.406;2022-12-18T03:38:06;102035.38;;;-1.52;89.85
44992;BME280;56865;51.618;7.406;2022-12-18T03:40:39;102028.13;;;-1.58;89.01
44992;BME280;56865;51.618;7.406;2022-12-18T03:43:11;102029.19;;;-1.56;89.65
44992;BME280;56865;51.618;7.406;2022-12-18T03:45:47;102025.16;;;-1.63;89.02
44992;BME280;56865;51.618;7.406;2022-12-18T03:48:19;102018.59;;;-1.53;89.83
44992;BME280;56865;51.618;7.406;2022-12-18T03:50:52;102021.84;;;-1.45;89.99
44992;BME280;56865;51.618;7.406;2022-12-18T03:53:28;102025.78;;;-1.48;89.59
44992;BME280;56865;51.618;7.406;2022-12-18T03:56:00;102033.31;;;-1.39;89.11
44992;BME280;56865;51.618;7.406;2022-12-18T03:58:31;102036.34;;;-1.68;88.24
44992;BME280;56865;51.618;7.406;2022-12-18T04:01:02;102032.38;;;-1.66;88.40
44992;BME280;56865;51.618;7.406;2022-12-18T04:03:33;102037.00;;;-1.86;88.55
44992;BME280;56865;51.618;7.406;2022-12-18T04:06:03;102037.66;;;-1.63;89.46
44992;BME280;56865;51.618;7.406;2022-12-18T04:08:36;102026.53;;;-1.49;89.34
44992;BME280;56865;51.618;7.406;2022-12-18T04:11:06;102021.47;;;-1.75;87.81
44992;BME280;56865;51.618;7.406;2022-12-18T04:13:36;102026.34;;;-1.68;88.82
44992;BME280;56865;51.618;7.406;2022-12-18T04:16:07;102020.72;;;-1.83;88.34
44992;BME280;56865;51.618;7.406;2022-12-18T04:18:36;102018.19;;;-1.91;88.45
44992;BME280;56865;51.618;7.406;2022-12-18T04:21:06;102017.81;;;-1.78;89.16
44992;BME280;56865;51.618;7.406;2022-12-18T04:23:38;102012.59;;;-1.89;88.08
44992;BME280;56865;51.618;7.406;2022-12-18T04:26:08;102015.56;;;-1.84;88.82
44992;BME280;56865;51.618;7.406;2022-12-18T04:28:37;102017.97;;;-1.68;89.34
44992;BME280;56865;51.618;7.406;2022-12-18T04:31:07;102018.97;;;-1.75;89.15
44992;BME280;56865;51.618;7.406;2022-12-18T04:33:36;102013.00;;;-1.59;88.98
44992;BME280;56865;51.618;7.406;2022-12-18T04:36:06;102018.56;;;-1.71;88.85
44992;BME280;56865;51.618;7.406;2022-12-18T04:38:38;102019.56;;;-1.69;89.28
44992;BME280;56865;51.618;7.406;2022-12-18T04:41:08;102017.53;;;-1.64;89.20
44992;BME280;56865;51.618;7.406;2022-12-18T04:43:37;102023.00;;;-1.59;89.34
44992;BME280;56865;51.618;7.406;2022-12-18T04:46:08;102019.44;;;-1.61;89.41
44992;BME280;56865;51.618;7.406;2022-12-18T04:48:37;102015.75;;;-1.65;89.17
44992;BME280;56865;51.618;7.406;2022-12-18T04:51:07;102010.19;;;-1.63;89.21
44992;BME280;56865;51.618;7.406;2022-12-18T04:53:39;102014.78;;;-1.58;89.52
44992;BME280;56865;51.618;7.406;2022-12-18T04:56:10;102014.44;;;-1.61;89.29
44992;BME280;56865;51.618;7.406;2022-12-18T04:58:41;102008.56;;;-1.62;89.40
44992;BME280;56865;51.618;7.406;2022-12-18T05:01:11;102010.91;;;-1.64;89.79
44992;BME280;56865;51.618;7.406;2022-12-18T05:03:41;102007.25;;;-1.67;89.36
44992;BME280;56865;51.618;7.406;2022-12-18T05:06:11;102000.34;;;-1.61;89.51
44992;BME280;56865;51.618;7.406;2022-12-18T05:08:43;101996.81;;;-1.63;89.68
44992;BME280;56865;51.618;7.406;2022-12-18T05:11:15;102000.06;;;-1.55;89.56
44992;BME280;56865;51.618;7.406;2022-12-18T05:13:45;102000.19;;;-1.54;90.12
44992;BME280;56865;51.618;7.406;2022-12-18T05:16:14;101995.66;;;-1.49;89.87
44992;BME280;56865;51.618;7.406;2022-12-18T05:18:44;101990.63;;;-1.58;89.34
44992;BME280;56865;51.618;7.406;2022-12-18T05:21:16;101991.97;;;-1.53;89.47
44992;BME280;56865;51.618;7.406;2022-12-18T05:23:48;101987.13;;;-1.51;90.33
44992;BME280;56865;51.618;7.406;2022-12-18T05:26:17;101985.94;;;-1.46;90.09
44992;BME280;56865;51.618;7.406;2022-12-18T05:28:47;101984.78;;;-1.41;90.63
44992;BME280;56865;51.618;7.406;2022-12-18T05:31:17;101983.00;;;-1.51;90.57
44992;BME280;56865;51.618;7.406;2022-12-18T05:33:46;101984.47;;;-1.44;90.07
44992;BME280;56865;51.618;7.406;2022-12-18T05:36:18;101986.69;;;-1.47;90.62
44992;BME280;56865;51.618;7.406;2022-12-18T05:38:50;101983.44;;;-1.46;90.33
44992;BME280;56865;51.618;7.406;2022-12-18T05:41:20;101988.44;;;-1.37;90.18
44992;BME280;56865;51.618;7.406;2022-12-18T05:43:49;101978.31;;;-1.39;90.27
44992;BME280;56865;51.618;7.406;2022-12-18T05:46:20;101983.16;;;-1.40;89.99
44992;BME280;56865;51.618;7.406;2022-12-18T05:48:50;101985.09;;;-1.38;90.35
44992;BME280;56865;51.618;7.406;2022-12-18T05:51:21;102000.38;;;-1.35;90.60
44992;BME280;56865;51.618;7.406;2022-12-18T05:53:53;102005.38;;;-1.35;90.47
44992;BME280;56865;51.618;7.406;2022-12-18T05:56:23;102011.28;;;-1.34;90.56
44992;BME280;56865;51.618;7.406;2022-12-18T05:58:52;102013.91;;;-1.41;90.06
44992;BME280;56865;51.618;7.406;2022-12-18T06:01:23;102012.31;;;-1.41;89.83
44992;BME280;56865;51.618;7.406;2022-12-18T06:03:53;102011.13;;;-1.44;89.73
44992;BME280;56865;51.618;7.406;2022-12-18T06:06:24;102012.31;;;-1.41;90.07
44992;BME280;56865;51.618;7.406;2022-12-18T06:08:57;102011.53;;;-1.40;89.77
44992;BME280;56865;51.618;7.406;2022-12-18T06:11:27;102011.53;;;-1.40;90.73
44992;BME280;56865;51.618;7.406;2022-12-18T06:13:57;102008.28;;;-1.48;89.56
44992;BME280;56865;51.618;7.406;2022-12-18T06:16:26;102015.09;;;-1.38;89.69
44992;BME280;56865;51.618;7.406;2022-12-18T06:18:56;102020.34;;;-1.43;89.49
44992;BME280;56865;51.618;7.406;2022-12-18T06:21:25;102026.53;;;-1.40;90.01
44992;BME280;56865;51.618;7.406;2022-12-18T06:23:58;102033.91;;;-1.33;89.70
44992;BME280;56865;51.618;7.406;2022-12-18T06:26:27;102036.25;;;-1.43;89.28
44992;BME280;56865;51.618;7.406;2022-12-18T06:28:57;102041.53;;;-1.49;89.21
44992;BME280;56865;51.618;7.406;2022-12-18T06:31:26;102037.31;;;-1.41;89.14
44992;BME280;56865;51.618;7.406;2022-12-18T06:33:56;102044.38;;;-1.37;89.68
44992;BME280;56865;51.618;7.406;2022-12-18T06:36:25;102044.38;;;-1.37;89.07
44992;BME280;56865;51.618;7.406;2022-12-18T06:38:55;102044.19;;;-1.47;89.44
44992;BME280;56865;51.618;7.406;2022-12-18T06:41:28;102046.50;;;-1.57;88.88
44992;BME280;56865;51.618;7.406;2022-12-18T06:43:57;102040.50;;;-1.51;89.27
44992;BME280;56865;51.618;7.406;2022-12-18T06:46:27;102040.06;;;-1.55;89.32
44992;BME280;56865;51.618;7.406;2022-12-18T06:48:56;102033.03;;;-1.42;90.07
44992;BME280;56865;51.618;7.406;2022-12-18T06:51:26;102032.72;;;-1.45;89.30
44992;BME280;56865;51.618;7.406;2022-12-18T06:53:55;102034.44;;;-1.61;88.55
44992;BME280;56865;51.618;7.406;2022-12-18T06:56:25;102036.25;;;-1.43;89.67
44992;BME280;56865;51.618;7.406;2022-12-18T06:58:57;102025.66;;;-1.49;89.28
44992;BME280;56865;51.618;7.406;2022-12-18T07:01:26;102024.34;;;-1.37;90.17
44992;BME280;56865;51.618;7.406;2022-12-18T07:03:56;102019.03;;;-1.40;89.57
44992;BME280;56865;51.618;7.406;2022-12-18T07:06:26;102014.94;;;-1.39;89.76
44992;BME280;56865;51.618;7.406;2022-12-18T07:08:55;102023.28;;;-1.48;88.99
44992;BME280;56865;51.618;7.406;2022-12-18T07:11:25;102019.47;;;-1.44;89.73
44992;BME280;56865;51.618;7.406;2022-12-18T07:13:57;102011.84;;;-1.45;89.22
44992;BME280;56865;51.618;7.406;2022-12-18T07:16:26;102003.44;;;-1.37;89.68
44992;BME280;56865;51.618;7.406;2022-12-18T07:18:57;102008.03;;;-1.42;89.66
44992;BME280;56865;51.618;7.406;2022-12-18T07:21:26;102010.53;;;-1.33;90.08
44992;BME280;56865;51.618;7.406;2022-12-18T07:23:56;102005.97;;;-1.28;90.26
44992;BME280;56865;51.618;7.406;2022-12-18T07:26:25;102012.44;;;-1.31;89.92
44992;BME280;56865;51.618;7.406;2022-12-18T07:28:58;102008.91;;;-1.33;90.00
44992;BME280;56865;51.618;7.406;2022-12-18T07:31:27;102000.22;;;-1.36;89.98
44992;BME280;56865;51.618;7.406;2022-12-18T07:33:57;102003.31;;;-1.39;89.98
44992;BME280;56865;51.618;7.406;2022-12-18T07:36:26;102003.88;;;-1.50;89.87
44992;BME280;56865;51.618;7.406;2022-12-18T07:38:56;101997.72;;;-1.36;90.53
44992;BME280;56865;51.618;7.406;2022-12-18T07:41:25;101996.84;;;-1.28;90.46
44992;BME280;56865;51.618;7.406;2022-12-18T07:43:57;102003.91;;;-1.33;89.96
44992;BME280;56865;51.618;7.406;2022-12-18T07:46:27;101995.38;;;-1.26;90.36
44992;BME280;56865;51.618;7.406;2022-12-18T07:48:57;101997.59;;;-1.20;90.69
44992;BME280;56865;51.618;7.406;2022-12-18T07:51:26;102004.22;;;-1.21;90.06
44992;BME280;56865;51.618;7.406;2022-12-18T07:53:56;102001.56;;;-1.13;91.30
44992;BME280;56865;51.618;7.406;2022-12-18T07:56:26;102004.19;;;-1.03;90.97
44992;BME280;56865;51.618;7.406;2022-12-18T07:59:06;101991.53;;;-0.96;91.28
44992;BME280;56865;51.618;7.406;2022-12-18T08:01:36;102005.84;;;-0.95;91.67
44992;BME280;56865;51.618;7.406;2022-12-18T08:04:06;102010.09;;;-0.94;91.66
44992;BME280;56865;51.618;7.406;2022-12-18T08:06:35;102013.59;;;-0.83;92.15
44992;BME280;56865;51.618;7.406;2022-12-18T08:09:09;102008.59;;;-0.74;91.98
44992;BME280;56865;51.618;7.406;2022-12-18T08:11:39;101998.88;;;-0.71;92.13
44992;BME280;56865;51.618;7.406;2022-12-18T08:14:11;101994.00;;;-0.61;92.38
44992;BME280;56865;51.618;7.406;2022-12-18T08:16:41;101993.84;;;-0.54;92.00
44992;BME280;56865;51.618;7.406;2022-12-18T08:19:10;101994.44;;;-0.47;92.59
44992;BME280;56865;51.618;7.406;2022-12-18T08:21:40;101991.16;;;-0.38;92.70
44992;BME280;56865;51.618;7.406;2022-12-18T08:24:10;101995.06;;;-0.22;92.89
44992;BME280;56865;51.618;7.406;2022-12-18T08:26:39;101990.16;;;-0.12;93.38
44992;BME280;56865;51.618;7.406;2022-12-18T08:29:28;101980.41;;;0.00;93.64
44992;BME280;56865;51.618;7.406;2022-12-18T08:31:59;101972.69;;;0.07;93.63
44992;BME280;56865;51.618;7.406;2022-12-18T08:34:28;101971.63;;;0.14;94.12
44992;BME280;56865;51.618;7.406;2022-12-18T08:36:58;101963.44;;;0.25;94.31
44992;BME280;56865;51.618;7.406;2022-12-18T08:39:27;101954.41;;;0.27;94.50
44992;BME280;56865;51.618;7.406;2022-12-18T08:41:57;101949.66;;;0.39;95.18
44992;BME280;56865;51.618;7.406;2022-12-18T08:44:41;101949.66;;;0.58;94.74
44992;BME280;56865;51.618;7.406;2022-12-18T08:47:11;101950.28;;;0.85;95.53
44992;BME280;56865;51.618;7.406;2022-12-18T08:49:40;101953.13;;;0.99;95.96
44992;BME280;56865;51.618;7.406;2022-12-18T08:52:10;101950.59;;;1.18;96.53
44992;BME280;56865;51.618;7.406;2022-12-18T08:54:39;101941.84;;;1.33;96.37
44992;BME280;56865;51.618;7.406;2022-12-18T08:57:09;101935.13;;;1.53;96.41
44992;BME280;56865;51.618;7.406;2022-12-18T08:59:41;101936.28;;;1.56;96.86
44992;BME280;56865;51.618;7.406;2022-12-18T09:02:11;101947.09;;;1.66;96.68
44992;BME280;56865;51.618;7.406;2022-12-18T09:04:41;101956.41;;;1.67;97.29
44992;BME280;56865;51.618;7.406;2022-12-18T09:07:12;101955.66;;;1.78;97.42
44992;BME280;56865;51.618;7.406;2022-12-18T09:09:41;101948.63;;;1.84;98.08
44992;BME280;56865;51.618;7.406;2022-12-18T09:12:11;101949.53;;;1.95;97.65
44992;BME280;56865;51.618;7.406;2022-12-18T09:14:43;101935.31;;;2.06;97.88
44992;BME280;56865;51.618;7.406;2022-12-18T09:17:13;101933.81;;;2.18;98.17
44992;BME280;56865;51.618;7.406;2022-12-18T09:19:42;101923.00;;;2.19;97.96
44992;BME280;56865;51.618;7.406;2022-12-18T09:22:12;101930.56;;;2.30;98.15
44992;BME280;56865;51.618;7.406;2022-12-18T09:24:42;101926.25;;;2.39;99.10
44992;BME280;56865;51.618;7.406;2022-12-18T09:27:11;101926.00;;;2.46;99.04
44992;BME280;56865;51.618;7.406;2022-12-18T09:29:43;101923.47;;;2.56;99.35
44992;BME280;56865;51.618;7.406;2022-12-18T09:32:13;101924.97;;;2.65;99.30
44992;BME280;56865;51.618;7.406;2022-12-18T09:34:47;101926.47;;;2.63;99.68
44992;BME280;56865;51.618;7.406;2022-12-18T09:37:17;101927.06;;;2.70;99.56
44992;BME280;56865;51.618;7.406;2022-12-18T09:39:47;101930.47;;;2.81;99.41
44992;BME280;56865;51.618;7.406;2022-12-18T09:42:17;101917.66;;;2.78;99.72
44992;BME280;56865;51.618;7.406;2022-12-18T09:44:52;101916.59;;;2.86;100.00
44992;BME280;56865;51.618;7.406;2022-12-18T09:47:23;101912.78;;;2.91;100.00
44992;BME280;56865;51.618;7.406;2022-12-18T09:49:54;101917.50;;;3.09;99.99
44992;BME280;56865;51.618;7.406;2022-12-18T09:52:26;101920.03;;;3.09;100.00
44992;BME280;56865;51.618;7.406;2022-12-18T09:54:58;101922.50;;;3.19;99.87
44992;BME280;56865;51.618;7.406;2022-12-18T09:57:29;101922.50;;;3.19;99.38
44992;BME280;56865;51.618;7.406;2022-12-18T10:00:05;101920.13;;;3.21;100.00
44992;BME280;56865;51.618;7.406;2022-12-18T10:02:38;101922.94;;;3.36;100.00
44992;BME280;56865;51.618;7.406;2022-12-18T10:05:10;101915.31;;;3.24;100.00
44992;BME280;56865;51.618;7.406;2022-12-18T10:07:43;101925.16;;;3.43;100.00
44992;BME280;56865;51.618;7.406;2022-12-18T10:10:19;101913.75;;;3.58;100.00
44992;BME280;56865;51.618;7.406;2022-12-18T10:12:53;101913.44;;;3.66;100.00
44992;BME280;56865;51.618;7.406;2022-12-18T10:15:33;101907.63;;;3.67;100.00
44992;BME280;56865;51.618;7.406;2022-12-18T10:18:08;101900.44;;;3.83;100.00
44992;BME280;56865;51.618;7.406;2022-12-18T10:20:47;101901.44;;;3.85;100.00
44992;BME280;56865;51.618;7.406;2022-12-18T10:23:19;101900.81;;;4.00;100.00
44992;BME280;56865;51.618;7.406;2022-12-18T10:25:53;101903.50;;;4.13;100.00
44992;BME280;56865;51.618;7.406;2022-12-18T10:28:24;101900.22;;;4.14;100.00
44992;BME280;56865;51.618;7.406;2022-12-18T10:30:57;101893.75;;;4.18;100.00
44992;BME280;56865;51.618;7.406;2022-12-18T10:33:28;101882.03;;;4.30;100.00
44992;BME280;56865;51.618;7.406;2022-12-18T10:35:58;101878.72;;;4.19;100.00
44992;BME280;56865;51.618;7.406;2022-12-18T10:38:29;101874.88;;;4.25;100.00
44992;BME280;56865;51.618;7.406;2022-12-18T10:41:00;101853.81;;;4.24;100.00
44992;BME280;56865;51.618;7.406;2022-12-18T10:43:31;101844.81;;;4.39;100.00
44992;BME280;56865;51.618;7.406;2022-12-18T10:46:05;101842.84;;;4.47;100.00
44992;BME280;56865;51.618;7.406;2022-12-18T10:48:47;101835.59;;;4.52;100.00
44992;BME280;56865;51.618;7.406;2022-12-18T10:51:22;101837.25;;;4.63;100.00
44992;BME280;56865;51.618;7.406;2022-12-18T10:53:53;101840.19;;;4.69;100.00
44992;BME280;56865;51.618;7.406;2022-12-18T10:56:24;101826.97;;;4.85;100.00
44992;BME280;56865;51.618;7.406;2022-12-18T10:58:55;101820.84;;;4.82;100.00
44992;BME280;56865;51.618;7.406;2022-12-18T11:01:28;101818.28;;;4.94;100.00
44992;BME280;56865;51.618;7.406;2022-12-18T11:04:08;101822.34;;;4.92;100.00
44992;BME280;56865;51.618;7.406;2022-12-18T11:06:51;101829.81;;;5.02;100.00
44992;BME280;56865;51.618;7.406;2022-12-18T11:09:22;101826.47;;;5.03;100.00
44992;BME280;56865;51.618;7.406;2022-12-18T11:11:52;101824.28;;;5.08;100.00
44992;BME280;56865;51.618;7.406;2022-12-18T11:14:23;101826.91;;;5.09;100.00
44992;BME280;56865;51.618;7.406;2022-12-18T11:16:57;101813.59;;;5.12;100.00
44992;BME280;56865;51.618;7.406;2022-12-18T11:19:52;101797.91;;;5.16;100.00
44992;BME280;56865;51.618;7.406;2022-12-18T11:22:24;101796.66;;;5.23;100.00
44992;BME280;56865;51.618;7.406;2022-12-18T11:24:56;101799.00;;;5.19;100.00
44992;BME280;56865;51.618;7.406;2022-12-18T11:27:50;101800.09;;;5.36;100.00
44992;BME280;56865;51.618;7.406;2022-12-18T11:30:21;101797.22;;;5.44;100.00
44992;BME280;56865;51.618;7.406;2022-12-18T11:32:54;101785.94;;;5.52;100.00
44992;BME280;56865;51.618;7.406;2022-12-18T11:35:28;101790.91;;;5.50;100.00
44992;BME280;56865;51.618;7.406;2022-12-18T11:38:02;101794.84;;;5.59;100.00
44992;BME280;56865;51.618;7.406;2022-12-18T11:40:35;101789.56;;;5.56;100.00
44992;BME280;56865;51.618;7.406;2022-12-18T11:43:08;101791.31;;;5.57;100.00
44992;BME280;56865;51.618;7.406;2022-12-18T11:45:40;101777.91;;;5.58;100.00
44992;BME280;56865;51.618;7.406;2022-12-18T11:48:16;101771.66;;;5.52;100.00
44992;BME280;56865;51.618;7.406;2022-12-18T11:50:47;101763.53;;;5.70;100.00
44992;BME280;56865;51.618;7.406;2022-12-18T11:53:18;101755.31;;;5.47;100.00
44992;BME280;56865;51.618;7.406;2022-12-18T11:56:02;101735.78;;;5.45;100.00
44992;BME280;56865;51.618;7.406;2022-12-18T11:58:42;101740.06;;;5.59;100.00
44992;BME280;56865;51.618;7.406;2022-12-18T12:01:23;101740.09;;;5.73;100.00
44992;BME280;56865;51.618;7.406;2022-12-18T12:04:13;101735.69;;;5.83;100.00
44992;BME280;56865;51.618;7.406;2022-12-18T12:06:50;101736.09;;;5.76;100.00
44992;BME280;56865;51.618;7.406;2022-12-18T12:09:29;101729.88;;;5.71;100.00
44992;BME280;56865;51.618;7.406;2022-12-18T12:12:07;101733.00;;;5.80;100.00
44992;BME280;56865;51.618;7.406;2022-12-18T12:14:46;101727.72;;;5.77;100.00
44992;BME280;56865;51.618;7.406;2022-12-18T12:17:20;101734.94;;;5.84;100.00
44992;BME280;56865;51.618;7.406;2022-12-18T12:19:56;101723.34;;;5.61;100.00
44992;BME280;56865;51.618;7.406;2022-12-18T12:22:32;101721.47;;;5.72;100.00
44992;BME280;56865;51.618;7.406;2022-12-18T12:25:10;101720.94;;;5.76;100.00
44992;BME280;56865;51.618;7.406;2022-12-18T12:27:44;101722.97;;;5.95;100.00
44992;BME280;56865;51.618;7.406;2022-12-18T12:30:18;101708.00;;;5.98;100.00
44992;BME280;56865;51.618;7.406;2022-12-18T12:32:53;101703.63;;;5.82;100.00
44992;BME280;56865;51.618;7.406;2022-12-18T12:35:33;101699.91;;;5.91;100.00
44992;BME280;56865;51.618;7.406;2022-12-18T12:38:07;101693.72;;;5.99;100.00
44992;BME280;56865;51.618;7.406;2022-12-18T12:40:39;101698.00;;;6.00;100.00
44992;BME280;56865;51.618;7.406;2022-12-18T12:43:25;101696.59;;;5.65;100.00
44992;BME280;56865;51.618;7.406;2022-12-18T12:45:54;101687.63;;;5.97;100.00
44992;BME280;56865;51.618;7.406;2022-12-18T12:48:34;101683.75;;;6.02;100.00
44992;BME280;56865;51.618;7.406;2022-12-18T12:51:10;101674.97;;;5.83;100.00
44992;BME280;56865;51.618;7.406;2022-12-18T12:53:41;101675.19;;;5.86;100.00
44992;BME280;56865;51.618;7.406;2022-12-18T12:56:13;101679.19;;;5.83;100.00
44992;BME280;56865;51.618;7.406;2022-12-18T12:58:49;101680.28;;;6.00;100.00
44992;BME280;56865;51.618;7.406;2022-12-18T13:01:26;101674.97;;;5.97;100.00
44992;BME280;56865;51.618;7.406;2022-12-18T13:04:01;101681.16;;;6.00;100.00
44992;BME280;56865;51.618;7.406;2022-12-18T13:06:36;101673.94;;;6.07;100.00
44992;BME280;56865;51.618;7.406;2022-12-18T13:09:10;101678.50;;;6.12;100.00
44992;BME280;56865;51.618;7.406;2022-12-18T13:11:40;101681.44;;;6.05;100.00
44992;BME280;56865;51.618;7.406;2022-12-18T13:14:42;101674.81;;;6.07;100.00
44992;BME280;56865;51.618;7.406;2022-12-18T13:20:04;101668.50;;;6.00;100.00
44992;BME280;56865;51.618;7.406;2022-12-18T13:22:37;101674.41;;;6.14;100.00